Time;durP1;ratioP1;P1;durP2;ratioP2;P2;SDS_P1;SDS_P2;PMS_P1;PMS_P2;Temp;Humidity;BMP_temperature;BMP_pressure;BME280_temperature;BME280_humidity;BME280_pressure;Samples;Min_cycle;Max_cycle;Signal;HPM_P1;HPM_P2
2021/12/20 00:00:49;;;;;;;;;32.25;28.00;;;;;6.48;75.12;102447.13;4993587;28;45424;-66
2021/12/20 00:03:15;;;;;;;;;34.00;27.75;;;;;6.48;74.44;102452.38;5000008;28;45270;-67
2021/12/20 00:05:41;;;;;;;;;28.75;22.75;;;;;6.49;74.38;102443.69;4989299;28;46008;-66
2021/12/20 00:08:06;;;;;;;;;35.75;29.50;;;;;6.46;74.00;102436.50;5000167;28;45306;-67
2021/12/20 00:10:33;;;;;;;;;38.75;25.75;;;;;6.51;74.46;102439.44;4995836;28;47661;-68
2021/12/20 00:12:58;;;;;;;;;32.00;26.75;;;;;6.42;74.57;102424.00;4995576;28;45410;-67
2021/12/20 00:15:23;;;;;;;;;29.25;26.75;;;;;6.47;75.13;102429.56;4993790;28;45499;-68
2021/12/20 00:17:49;;;;;;;;;19.25;17.75;;;;;6.52;75.44;102432.47;4996462;28;45563;-68
2021/12/20 00:20:15;;;;;;;;;28.50;24.00;;;;;6.58;75.21;102438.13;4995985;28;45494;-68
2021/12/20 00:22:40;;;;;;;;;30.75;26.50;;;;;6.47;74.00;102422.59;4996280;28;45428;-68
2021/12/20 00:25:06;;;;;;;;;22.75;20.25;;;;;6.56;74.68;102430.16;4995666;28;45609;-66
2021/12/20 00:27:32;;;;;;;;;31.25;26.50;;;;;6.58;74.30;102438.13;4998637;28;45310;-67
2021/12/20 00:29:58;;;;;;;;;26.75;25.50;;;;;6.58;74.17;102443.38;4996225;28;45578;-68
2021/12/20 00:32:23;;;;;;;;;42.50;33.75;;;;;6.48;74.29;102411.25;4999370;28;45254;-66
2021/12/20 00:34:49;;;;;;;;;34.50;31.50;;;;;6.49;74.79;102417.41;4995439;28;45548;-67
2021/12/20 00:42:44;;;;;;;;;33.75;26.00;;;;;6.58;74.05;102428.56;4997607;28;45283;-66
2021/12/20 00:45:11;;;;;;;;;32.50;27.50;;;;;6.53;73.52;102432.59;4994597;28;45352;-66
2021/12/20 00:47:37;;;;;;;;;35.00;31.75;;;;;6.56;73.87;102429.25;4999432;28;45353;-68
2021/12/20 00:50:05;;;;;;;;;42.75;34.00;;;;;6.49;74.17;102415.69;4992220;28;46187;-68
2021/12/20 00:52:30;;;;;;;;;28.75;25.50;;;;;6.49;73.75;102417.41;4999680;28;45332;-68
2021/12/20 00:54:56;;;;;;;;;34.00;27.75;;;;;6.46;73.75;102407.63;4993184;28;45454;-68
2021/12/20 00:57:21;;;;;;;;;37.25;28.25;;;;;6.49;74.18;102414.78;4998256;28;47314;-68
2021/12/20 00:59:47;;;;;;;;;37.00;25.25;;;;;6.46;73.71;102410.25;4991638;28;46950;-66
2021/12/20 01:02:12;;;;;;;;;29.25;24.25;;;;;6.46;73.65;102409.34;4999287;28;45266;-66
2021/12/20 01:04:37;;;;;;;;;32.50;22.00;;;;;6.50;74.22;102417.53;4993189;28;45436;-66
2021/12/20 01:07:03;;;;;;;;;26.50;22.25;;;;;6.54;73.86;102415.09;4999373;28;45416;-66
2021/12/20 01:09:28;;;;;;;;;36.75;31.00;;;;;6.45;74.63;102389.13;4993111;28;45545;-68
2021/12/20 01:12:01;;;;;;;;;31.25;27.50;;;;;6.58;73.55;102410.16;4999468;28;45235;-68
2021/12/20 01:14:27;;;;;;;;;28.25;27.00;;;;;6.58;74.38;102414.50;4993085;28;45397;-68
2021/12/20 01:16:56;;;;;;;;;29.25;26.00;;;;;6.54;74.28;102389.75;4995818;28;45246;-67
2021/12/20 01:19:22;;;;;;;;;32.50;26.00;;;;;6.57;74.31;102399.53;4995061;28;46693;-66
2021/12/20 01:21:48;;;;;;;;;26.25;22.50;;;;;6.55;73.85;102394.19;4996910;28;45583;-67
2021/12/20 01:24:13;;;;;;;;;28.75;25.00;;;;;6.53;73.96;102379.16;4995248;28;45439;-68
2021/12/20 01:26:39;;;;;;;;;33.50;30.00;;;;;6.46;73.56;102373.47;5001742;28;46004;-68
2021/12/20 01:29:04;;;;;;;;;32.25;24.25;;;;;6.50;73.77;102385.09;5000586;28;45525;-68
2021/12/20 01:31:29;;;;;;;;;28.25;25.75;;;;;6.62;74.26;102403.38;4993643;28;45311;-68
2021/12/20 01:33:55;;;;;;;;;34.00;25.50;;;;;6.52;74.55;102375.59;5000575;28;45491;-68
2021/12/20 01:36:20;;;;;;;;;30.50;20.25;;;;;6.64;74.51;102381.66;4994560;28;46008;-68
2021/12/20 01:38:45;;;;;;;;;30.50;25.75;;;;;6.64;73.52;102386.03;5000548;28;46727;-68
2021/12/20 01:41:11;;;;;;;;;28.50;24.50;;;;;6.66;73.43;102397.50;4997821;28;45401;-68
2021/12/20 01:43:38;;;;;;;;;29.00;23.25;;;;;6.61;73.02;102389.34;5001736;28;45256;-68
2021/12/20 01:46:04;;;;;;;;;23.00;18.00;;;;;6.60;73.76;102378.72;4994497;28;45392;-68
2021/12/20 01:48:31;;;;;;;;;38.25;26.00;;;;;6.66;73.57;102387.91;5001985;28;46258;-68
2021/12/20 01:53:32;;;;;;;;;24.25;21.50;;;;;6.63;73.87;102384.19;4999723;28;45256;-68
2021/12/20 01:55:57;;;;;;;;;28.50;23.25;;;;;6.67;73.35;102387.13;4996504;28;45467;-68
2021/12/20 01:58:24;;;;;;;;;27.25;23.75;;;;;6.70;73.33;102387.31;5002185;28;45365;-68
2021/12/20 02:03:31;;;;;;;;;27.00;19.00;;;;;6.63;74.10;102378.94;5002343;28;45261;-68
2021/12/20 02:05:59;;;;;;;;;27.75;22.75;;;;;6.61;73.83;102376.22;4995656;28;45554;-68
2021/12/20 02:08:28;;;;;;;;;27.50;24.50;;;;;6.69;73.47;102382.88;5001852;28;46585;-68
2021/12/20 02:10:57;;;;;;;;;26.00;21.50;;;;;6.69;73.58;102384.56;4993380;28;45278;-68
2021/12/20 02:13:27;;;;;;;;;28.50;24.25;;;;;6.71;73.99;102377.72;5000623;28;45464;-68
2021/12/20 02:15:54;;;;;;;;;32.25;27.25;;;;;6.74;73.44;102385.78;4994590;28;45540;-68
2021/12/20 02:18:19;;;;;;;;;23.25;18.75;;;;;6.71;73.42;102370.72;5001032;28;45399;-68
2021/12/20 02:20:45;;;;;;;;;27.00;25.00;;;;;6.73;74.19;102377.00;4998191;28;45381;-68
2021/12/20 02:23:10;;;;;;;;;32.25;28.00;;;;;6.70;74.04;102379.44;5001651;28;45302;-68
2021/12/20 02:25:36;;;;;;;;;29.25;24.25;;;;;6.67;73.65;102373.09;4998094;28;46120;-68
2021/12/20 02:28:08;;;;;;;;;31.00;31.00;;;;;6.71;73.04;102378.63;5001374;28;45265;-68
2021/12/20 02:38:33;;;;;;;;;34.75;27.75;;;;;6.73;73.66;102366.50;5000924;28;45309;-68
2021/12/20 02:41:10;;;;;;;;;32.50;31.00;;;;;6.81;73.56;102369.63;4996563;28;45462;-68
2021/12/20 02:43:40;;;;;;;;;33.75;30.00;;;;;6.85;72.58;102375.97;5001352;28;45468;-68
2021/12/20 02:46:24;;;;;;;;;32.25;29.25;;;;;6.80;73.34;102370.41;4990048;28;46391;-67
2021/12/20 02:48:50;;;;;;;;;33.25;29.00;;;;;6.77;73.70;102361.44;4999295;28;45477;-68
2021/12/20 02:51:15;;;;;;;;;35.25;33.00;;;;;6.73;73.55;102353.34;4996936;28;45740;-68
2021/12/20 02:53:40;;;;;;;;;34.00;28.50;;;;;6.71;73.77;102354.97;5000094;28;45298;-67
2021/12/20 02:56:06;;;;;;;;;36.50;32.50;;;;;6.76;73.37;102359.63;4996218;28;45652;-68
2021/12/20 02:58:31;;;;;;;;;35.75;32.50;;;;;6.66;73.33;102342.34;5016033;28;47107;-68
2021/12/20 03:00:57;;;;;;;;;44.75;36.25;;;;;6.60;73.24;102334.97;5010323;28;45482;-67
2021/12/20 03:03:24;;;;;;;;;35.25;32.75;;;;;6.81;72.89;102366.09;5001617;28;45245;-67
2021/12/20 03:05:50;;;;;;;;;50.00;39.25;;;;;6.73;73.22;102355.97;4994546;28;45791;-68
2021/12/20 03:08:15;;;;;;;;;38.25;35.75;;;;;6.71;72.26;102359.31;5001040;28;45314;-68
2021/12/20 03:10:42;;;;;;;;;42.25;38.50;;;;;6.60;73.11;102342.84;4994616;28;44857;-67
2021/12/20 03:13:09;;;;;;;;;41.50;36.00;;;;;6.65;72.88;102354.56;4998077;28;45301;-67
2021/12/20 03:15:34;;;;;;;;;48.00;39.50;;;;;6.65;73.19;102357.19;4996226;28;46028;-67
2021/12/20 03:18:00;;;;;;;;;47.00;37.25;;;;;6.64;73.00;102342.25;4998181;28;46411;-67
2021/12/20 03:20:25;;;;;;;;;50.25;40.25;;;;;6.63;73.23;102340.41;4997205;28;45408;-67
2021/12/20 03:22:50;;;;;;;;;45.25;37.75;;;;;6.63;73.00;102329.91;4999635;28;45260;-67
2021/12/20 03:25:16;;;;;;;;;56.75;41.50;;;;;6.65;73.08;102327.41;4998316;28;45487;-68
2021/12/20 03:27:41;;;;;;;;;49.00;40.00;;;;;6.73;72.56;102347.19;5000482;28;46427;-67
2021/12/20 03:30:10;;;;;;;;;38.50;36.25;;;;;6.73;72.16;102348.09;4998698;28;45433;-67
2021/12/20 03:32:36;;;;;;;;;53.50;41.25;;;;;6.71;72.43;102330.41;5000732;28;45325;-67
2021/12/20 03:35:02;;;;;;;;;44.50;38.75;;;;;6.63;73.33;102324.66;4993602;28;47153;-67
2021/12/20 03:37:28;;;;;;;;;53.50;40.00;;;;;6.65;72.53;102325.66;5000342;28;45446;-67
2021/12/20 03:39:53;;;;;;;;;47.50;39.25;;;;;6.72;72.74;102340.09;4993971;28;45400;-67
2021/12/20 03:42:20;;;;;;;;;46.50;37.75;;;;;6.64;72.21;102318.59;5016023;28;45329;-67
2021/12/20 03:44:46;;;;;;;;;49.75;40.00;;;;;6.76;72.58;102338.59;4992898;28;45234;-67
2021/12/20 03:47:13;;;;;;;;;49.25;39.25;;;;;6.73;73.02;102326.16;4999463;28;46345;-67
2021/12/20 03:49:42;;;;;;;;;48.00;39.00;;;;;6.75;72.14;102331.50;4994119;28;45345;-67
2021/12/20 03:52:09;;;;;;;;;41.25;38.00;;;;;6.78;72.74;102334.34;5000711;28;45279;-67
2021/12/20 03:54:35;;;;;;;;;76.50;57.75;;;;;6.68;72.50;102324.97;4994118;28;45147;-67
2021/12/20 03:57:01;;;;;;;;;93.33;79.00;;;;;6.73;72.22;102334.97;5000404;28;46187;-67
2021/12/20 03:59:28;;;;;;;;;68.00;51.25;;;;;6.69;72.21;102325.06;4995260;28;46469;-67
2021/12/20 04:01:54;;;;;;;;;227.00;186.25;;;;;6.70;71.90;102329.50;4999269;28;45310;-67
2021/12/20 04:04:19;;;;;;;;;60.25;48.50;;;;;6.68;72.76;102328.50;4996126;28;45401;-67
2021/12/20 04:06:45;;;;;;;;;133.33;107.67;;;;;6.63;72.31;102322.03;4998173;28;45466;-67
2021/12/20 04:09:10;;;;;;;;;57.75;45.00;;;;;6.64;72.09;102323.88;4995664;28;44903;-67
2021/12/20 04:11:36;;;;;;;;;33.75;23.25;;;;;6.57;72.39;102302.34;4994768;28;45322;-67
2021/12/20 04:14:01;;;;;;;;;58.00;44.25;;;;;6.65;72.84;102319.50;4998237;28;45468;-67
2021/12/20 04:16:28;;;;;;;;;76.50;59.50;;;;;6.73;72.40;102337.59;4995882;28;46300;-67
2021/12/20 04:18:54;;;;;;;;;106.33;93.33;;;;;6.75;71.78;102329.81;4998199;28;45249;-68
2021/12/20 04:21:20;;;;;;;;;89.33;77.67;;;;;6.68;72.67;102320.59;4998792;28;45218;-68
2021/12/20 04:23:45;;;;;;;;;290.75;247.75;;;;;6.74;72.52;102335.84;4998400;28;45640;-68
2021/12/20 04:26:10;;;;;;;;;76.50;57.75;;;;;6.73;72.46;102339.31;4991331;28;45302;-67
2021/12/20 04:28:36;;;;;;;;;77.00;58.75;;;;;6.73;72.25;102340.22;4999341;28;44698;-68
2021/12/20 04:31:02;;;;;;;;;56.00;43.25;;;;;6.71;72.31;102339.19;4991392;28;45615;-67
2021/12/20 04:33:27;;;;;;;;;65.50;52.00;;;;;6.59;72.27;102321.75;5000036;28;45456;-67
2021/12/20 04:35:52;;;;;;;;;57.50;46.50;;;;;6.68;72.91;102331.13;4986778;28;47152;-68
2021/12/20 04:38:18;;;;;;;;;39.25;37.50;;;;;6.64;72.50;102328.22;4999150;28;45366;-67
2021/12/20 04:40:44;;;;;;;;;53.50;46.00;;;;;6.63;72.13;102334.25;4993988;28;45389;-67
2021/12/20 04:43:09;;;;;;;;;49.00;40.75;;;;;6.63;72.18;102332.53;4999927;28;45298;-67
2021/12/20 04:45:35;;;;;;;;;55.25;47.75;;;;;6.58;72.67;102327.78;5008218;28;46989;-67
2021/12/20 04:48:02;;;;;;;;;54.75;36.50;;;;;6.56;71.65;102322.47;4998148;28;45362;-67
2021/12/20 04:50:28;;;;;;;;;45.75;36.25;;;;;6.62;73.11;102335.09;4991946;28;45344;-68
2021/12/20 04:52:55;;;;;;;;;34.50;27.75;;;;;6.60;71.74;102329.72;4998196;28;46370;-67
2021/12/20 04:55:22;;;;;;;;;45.50;37.00;;;;;6.62;72.46;102322.84;4993035;28;45486;-67
2021/12/20 04:57:47;;;;;;;;;42.75;39.00;;;;;6.55;72.68;102318.00;4999643;28;45254;-67
2021/12/20 05:00:18;;;;;;;;;192.00;169.00;;;;;6.58;72.11;102336.59;4992215;28;45462;-67
2021/12/20 05:02:43;;;;;;;;;79.00;59.00;;;;;6.60;72.85;102341.94;4999192;28;45290;-67
2021/12/20 05:05:09;;;;;;;;;57.25;43.00;;;;;6.59;72.79;102337.50;4993688;28;45316;-68
2021/12/20 05:07:37;;;;;;;;;94.00;79.00;;;;;6.55;72.39;102333.75;4995625;28;45430;-67
2021/12/20 05:10:03;;;;;;;;;45.75;37.75;;;;;6.56;72.20;102343.47;4994985;28;45425;-67
2021/12/20 05:12:29;;;;;;;;;64.75;48.75;;;;;6.41;72.12;102326.69;5011775;28;46255;-68
2021/12/20 05:14:54;;;;;;;;;25.25;21.25;;;;;6.40;72.30;102324.88;4995381;28;45464;-68
2021/12/20 05:17:19;;;;;;;;;88.50;62.75;;;;;6.46;71.29;102338.41;4997336;28;45385;-67
2021/12/20 05:19:45;;;;;;;;;273.75;220.25;;;;;6.34;71.46;102328.03;4996705;28;45373;-67
2021/12/20 05:22:11;;;;;;;;;120.00;103.67;;;;;6.41;72.29;102345.06;4998623;28;45319;-67
2021/12/20 05:24:40;;;;;;;;;40.25;36.50;;;;;6.45;72.27;102342.75;4995626;28;48272;-67
2021/12/20 05:27:06;;;;;;;;;74.00;53.75;;;;;6.38;72.08;102339.63;4991473;28;45245;-68
2021/12/20 05:29:32;;;;;;;;;146.33;109.33;;;;;6.40;72.30;102333.66;4997201;28;44806;-68
2021/12/20 05:31:58;;;;;;;;;73.00;55.33;;;;;6.39;72.24;102339.75;4995052;28;45456;-67
2021/12/20 05:34:24;;;;;;;;;210.00;174.00;;;;;6.40;71.85;102324.88;4992598;28;47361;-67
2021/12/20 05:36:49;;;;;;;;;59.50;46.25;;;;;6.44;72.52;102327.81;4997182;28;45349;-68
2021/12/20 05:39:14;;;;;;;;;260.33;215.33;;;;;6.20;71.91;102299.94;4996401;28;45457;-68
2021/12/20 05:41:39;;;;;;;;;62.00;44.00;;;;;6.43;72.30;102335.59;4995868;28;45481;-68
2021/12/20 05:44:05;;;;;;;;;126.50;102.50;;;;;6.41;71.85;102330.25;4997071;28;45294;-68
2021/12/20 05:46:31;;;;;;;;;61.25;46.00;;;;;6.39;72.27;102325.72;5009549;28;45368;-68
2021/12/20 05:48:56;;;;;;;;;101.00;79.67;;;;;6.44;72.56;102340.03;5012149;28;44889;-68
2021/12/20 05:51:22;;;;;;;;;54.25;40.25;;;;;6.43;71.94;102330.34;4994315;28;45305;-68
2021/12/20 05:53:47;;;;;;;;;64.50;50.50;;;;;6.37;71.97;102327.31;4996864;28;45301;-68
2021/12/20 05:56:13;;;;;;;;;95.33;76.67;;;;;6.33;72.57;102327.91;4994290;28;45367;-68
2021/12/20 05:58:39;;;;;;;;;47.75;42.50;;;;;6.37;71.55;102338.72;5013470;28;45238;-67
2021/12/20 06:01:05;;;;;;;;;34.50;29.75;;;;;6.37;71.83;102333.47;4992610;28;45997;-68
2021/12/20 06:03:30;;;;;;;;;44.50;33.75;;;;;6.33;71.45;102331.47;4998694;28;45224;-68
2021/12/20 06:05:56;;;;;;;;;56.25;42.50;;;;;6.36;71.73;102339.53;4992232;28;45490;-68
2021/12/20 06:08:22;;;;;;;;;84.67;64.00;;;;;6.36;72.21;102341.22;4998660;28;45237;-67
2021/12/20 06:10:47;;;;;;;;;42.75;34.50;;;;;6.38;72.36;102343.16;4992601;28;45463;-67
2021/12/20 06:13:12;;;;;;;;;38.25;33.00;;;;;6.38;71.74;102334.38;4998918;28;45367;-68
2021/12/20 06:15:38;;;;;;;;;65.00;50.50;;;;;6.40;71.11;102327.50;4997521;28;45557;-68
2021/12/20 06:18:03;;;;;;;;;42.75;36.50;;;;;6.31;71.16;102313.78;4998622;28;45857;-68
2021/12/20 06:20:28;;;;;;;;;37.75;31.25;;;;;6.35;71.76;102319.31;4996408;28;45389;-69
2021/12/20 06:22:54;;;;;;;;;36.75;29.50;;;;;6.34;72.04;102316.59;5001369;28;45391;-67
2021/12/20 06:25:20;;;;;;;;;54.75;39.25;;;;;6.32;71.27;102311.25;4997495;28;45395;-66
2021/12/20 06:27:47;;;;;;;;;57.50;47.50;;;;;6.31;72.09;102311.16;4999622;28;45404;-70
2021/12/20 06:30:14;;;;;;;;;39.25;32.50;;;;;6.46;72.49;102334.06;4994367;28;45539;-67
2021/12/20 06:32:42;;;;;;;;;75.75;59.25;;;;;6.37;71.55;102335.19;4997159;28;46515;-67
2021/12/20 06:35:09;;;;;;;;;84.00;61.25;;;;;6.37;71.67;102329.94;4995436;28;45515;-69
2021/12/20 06:37:34;;;;;;;;;41.25;37.25;;;;;6.45;72.15;102337.50;4998679;28;45325;-68
2021/12/20 06:40:00;;;;;;;;;30.00;29.75;;;;;6.50;71.56;102348.34;4994955;28;45991;-68
2021/12/20 06:42:26;;;;;;;;;41.75;35.00;;;;;6.47;72.21;102348.13;5001511;28;46453;-67
2021/12/20 06:44:52;;;;;;;;;32.00;28.50;;;;;6.35;71.51;102321.94;4995326;28;45364;-67
2021/12/20 06:47:18;;;;;;;;;43.50;38.25;;;;;6.34;71.74;102346.41;5001217;28;45290;-67
2021/12/20 06:49:44;;;;;;;;;36.25;31.75;;;;;6.36;71.56;102357.94;4997403;28;45281;-67
2021/12/20 06:52:09;;;;;;;;;44.00;38.00;;;;;6.31;71.81;102367.22;5013718;28;47349;-68
2021/12/20 06:54:35;;;;;;;;;52.75;39.25;;;;;6.15;71.73;102324.97;4995348;28;45163;-69
2021/12/20 06:57:00;;;;;;;;;36.25;29.75;;;;;6.32;71.63;102355.88;5000756;28;45582;-69
2021/12/20 06:59:25;;;;;;;;;52.75;39.75;;;;;6.25;72.18;102354.59;4996426;28;45557;-69
2021/12/20 07:01:51;;;;;;;;;76.50;56.50;;;;;6.30;71.65;102374.97;4999246;28;45364;-69
2021/12/20 07:04:16;;;;;;;;;38.25;30.75;;;;;6.05;72.21;102308.63;4997838;28;45516;-69
2021/12/20 07:06:42;;;;;;;;;34.00;26.75;;;;;6.25;72.03;102356.31;4998491;28;45317;-69
2021/12/20 07:09:09;;;;;;;;;34.50;30.50;;;;;6.28;72.54;102359.13;4997214;28;47245;-68
2021/12/20 07:11:34;;;;;;;;;37.75;33.50;;;;;6.30;72.00;102367.09;4993815;28;45409;-67
2021/12/20 07:14:00;;;;;;;;;34.25;27.25;;;;;6.32;72.35;102366.38;4999219;28;45958;-69
2021/12/20 07:16:25;;;;;;;;;30.75;26.25;;;;;6.26;72.73;102353.75;4994935;28;45521;-69
2021/12/20 07:18:51;;;;;;;;;32.75;29.25;;;;;6.38;71.70;102371.13;4997749;28;45870;-67
2021/12/20 07:21:17;;;;;;;;;26.00;21.50;;;;;6.38;71.65;102365.88;4997044;28;45438;-67
2021/12/20 07:23:42;;;;;;;;;33.25;25.50;;;;;6.35;72.27;102366.59;4998941;28;45342;-67
2021/12/20 07:26:11;;;;;;;;;32.25;26.00;;;;;6.20;71.19;102342.84;4997264;28;45299;-67
2021/12/20 07:28:37;;;;;;;;;20.25;18.25;;;;;6.24;72.13;102358.00;4989915;28;45330;-67
2021/12/20 07:31:02;;;;;;;;;28.25;24.25;;;;;6.21;71.99;102363.03;4989182;28;48462;-67
2021/12/20 07:33:28;;;;;;;;;20.25;18.00;;;;;6.22;71.14;102356.09;4999002;28;45236;-67
2021/12/20 07:35:53;;;;;;;;;20.25;16.50;;;;;6.20;71.12;102371.72;5003867;28;45648;-67
2021/12/20 07:38:19;;;;;;;;;18.50;16.00;;;;;6.14;71.64;102366.06;4999629;28;45492;-67
2021/12/20 07:40:47;;;;;;;;;18.00;14.75;;;;;6.20;71.19;102376.09;4990766;28;45419;-69
2021/12/20 07:43:16;;;;;;;;;16.50;15.00;;;;;6.12;70.60;102372.94;4999878;28;45530;-67
2021/12/20 07:45:42;;;;;;;;;14.75;9.50;;;;;6.09;70.70;102367.47;4993108;28;45454;-66
2021/12/20 07:48:08;;;;;;;;;12.50;11.00;;;;;6.16;71.38;102376.66;5000148;28;45277;-68
2021/12/20 07:50:33;;;;;;;;;12.50;10.75;;;;;6.03;70.99;102351.31;4994370;28;46944;-67
2021/12/20 07:52:59;;;;;;;;;16.25;11.25;;;;;6.07;71.00;102366.47;5000056;28;44758;-66
2021/12/20 07:55:26;;;;;;;;;15.75;11.25;;;;;6.10;70.92;102384.13;4993836;28;45382;-66
2021/12/20 07:57:51;;;;;;;;;15.75;12.50;;;;;6.10;70.67;102385.03;5000040;28;45290;-67
2021/12/20 08:00:17;;;;;;;;;11.75;11.50;;;;;6.05;71.11;102368.09;4993412;28;45549;-68
2021/12/20 08:02:43;;;;;;;;;15.75;11.50;;;;;6.04;69.90;102366.25;4999558;28;45553;-67
2021/12/20 08:05:09;;;;;;;;;13.50;12.25;;;;;6.12;70.42;102379.91;4993169;28;45417;-67
2021/12/20 08:07:35;;;;;;;;;22.00;15.00;;;;;6.06;70.15;102372.53;4999855;28;45466;-67
2021/12/20 08:10:00;;;;;;;;;19.50;15.75;;;;;6.16;70.11;102379.28;4994203;28;46293;-67
2021/12/20 08:12:26;;;;;;;;;26.50;17.75;;;;;6.11;69.97;102371.13;4995290;28;45332;-67
2021/12/20 08:14:51;;;;;;;;;22.25;16.25;;;;;6.09;69.92;102377.06;4995232;28;45369;-67
2021/12/20 08:17:16;;;;;;;;;17.00;14.25;;;;;6.17;71.40;102382.03;5012407;28;46288;-67
2021/12/20 08:19:42;;;;;;;;;19.75;18.00;;;;;6.05;70.54;102370.72;4996243;28;45569;-67
2021/12/20 08:22:07;;;;;;;;;27.25;20.75;;;;;6.02;70.80;102366.16;5013052;28;45586;-66
2021/12/20 08:24:32;;;;;;;;;25.25;22.50;;;;;6.13;70.86;102381.72;4996857;28;45415;-66
2021/12/20 08:26:58;;;;;;;;;25.25;22.50;;;;;5.96;70.77;102360.47;4998683;28;45283;-67
2021/12/20 08:29:24;;;;;;;;;25.00;21.00;;;;;6.12;70.53;102385.16;4997081;28;46259;-67
2021/12/20 08:31:50;;;;;;;;;24.75;21.25;;;;;6.16;70.96;102395.03;4990781;28;45336;-67
2021/12/20 08:34:16;;;;;;;;;29.00;21.00;;;;;6.10;70.65;102384.13;4996909;28;45456;-67
2021/12/20 08:36:41;;;;;;;;;27.75;24.50;;;;;6.12;70.52;102391.31;4991901;28;45717;-67
2021/12/20 08:39:07;;;;;;;;;29.25;25.75;;;;;6.10;71.27;102374.53;4992708;28;46408;-67
2021/12/20 08:41:32;;;;;;;;;28.50;22.00;;;;;6.23;70.23;102400.81;4993495;28;45349;-66
2021/12/20 08:43:58;;;;;;;;;28.75;25.50;;;;;6.10;69.30;102387.66;4997034;28;45388;-67
2021/12/20 08:46:23;;;;;;;;;21.50;20.25;;;;;6.13;70.33;102398.38;4993544;28;45751;-67
2021/12/20 08:48:50;;;;;;;;;23.75;20.75;;;;;6.05;69.58;102378.59;4997209;28;45791;-67
2021/12/20 08:51:16;;;;;;;;;27.25;22.75;;;;;6.17;69.42;102405.66;4997859;28;45402;-66
2021/12/20 08:53:41;;;;;;;;;23.50;18.00;;;;;6.17;69.72;102392.53;4998258;28;45226;-67
2021/12/20 08:56:07;;;;;;;;;24.50;20.25;;;;;6.21;70.22;102412.03;4993040;28;45539;-67
2021/12/20 08:58:32;;;;;;;;;32.00;22.75;;;;;6.27;70.81;102412.44;4998757;28;45296;-67
2021/12/20 09:00:58;;;;;;;;;20.75;20.00;;;;;6.24;70.29;102410.50;4991904;28;45368;-67
2021/12/20 09:03:24;;;;;;;;;22.50;21.25;;;;;6.19;70.16;102400.50;4998695;28;45385;-67
2021/12/20 09:05:49;;;;;;;;;27.00;24.50;;;;;6.19;70.18;102398.81;4992093;28;45445;-67
2021/12/20 09:08:17;;;;;;;;;23.50;21.50;;;;;6.30;70.06;102415.25;4998314;28;46081;-67
2021/12/20 09:10:43;;;;;;;;;23.75;19.50;;;;;6.30;69.65;102416.97;4993375;28;45463;-67
2021/12/20 09:13:09;;;;;;;;;26.50;21.75;;;;;6.32;69.10;102416.28;4995368;28;45709;-67
2021/12/20 09:15:35;;;;;;;;;23.75;20.75;;;;;6.36;69.87;102417.38;4994051;28;45361;-67
2021/12/20 09:18:02;;;;;;;;;23.75;21.50;;;;;6.30;70.49;102406.47;4996091;28;45680;-67
2021/12/20 09:20:30;;;;;;;;;22.75;18.50;;;;;6.34;69.35;102413.78;4994868;28;45754;-67
2021/12/20 09:23:07;;;;;;;;;19.00;17.00;;;;;6.27;69.41;102416.00;4997023;28;45415;-67
2021/12/20 09:25:36;;;;;;;;;25.25;20.00;;;;;6.29;69.84;102413.47;4996150;28;46437;-68
2021/12/20 09:28:03;;;;;;;;;21.50;19.00;;;;;6.21;69.71;102405.06;4998041;28;46584;-68
2021/12/20 09:30:30;;;;;;;;;28.25;24.50;;;;;6.20;69.25;102398.00;4990145;28;45473;-69
2021/12/20 09:32:55;;;;;;;;;19.50;17.50;;;;;6.18;69.62;102383.84;4990970;28;45360;-68
2021/12/20 09:35:21;;;;;;;;;24.50;22.25;;;;;6.26;68.76;102416.78;4992342;28;45539;-66
2021/12/20 09:37:50;;;;;;;;;27.75;23.00;;;;;6.32;69.18;102410.13;4996780;28;47182;-68
2021/12/20 09:40:17;;;;;;;;;18.50;15.75;;;;;6.36;69.21;102422.66;4990375;28;45421;-68
2021/12/20 09:42:49;;;;;;;;;19.50;16.50;;;;;6.34;69.14;102427.81;5003817;28;45440;-67
2021/12/20 09:45:22;;;;;;;;;17.25;11.25;;;;;6.28;69.39;102424.78;4990009;28;45362;-68
2021/12/20 09:47:50;;;;;;;;;21.75;17.50;;;;;6.21;68.11;102407.69;5000514;28;47061;-67
2021/12/20 09:50:16;;;;;;;;;22.75;18.25;;;;;6.27;68.93;102410.75;4995281;28;45441;-67
2021/12/20 09:52:43;;;;;;;;;18.00;16.25;;;;;6.31;68.58;102418.81;5001598;28;45325;-67
2021/12/20 09:55:10;;;;;;;;;24.75;17.75;;;;;6.17;68.37;102412.63;4995135;28;45308;-67
2021/12/20 09:57:37;;;;;;;;;48.00;38.50;;;;;6.24;68.11;102427.97;5001647;28;45353;-67
2021/12/20 10:00:07;;;;;;;;;61.50;48.75;;;;;6.22;68.29;102417.41;4993775;28;45638;-67
2021/12/20 10:02:33;;;;;;;;;42.00;37.75;;;;;6.20;68.95;102412.84;5001206;28;44718;-67
2021/12/20 10:04:58;;;;;;;;;14.00;14.00;;;;;6.23;68.34;102416.56;4995279;28;45650;-68
2021/12/20 10:07:25;;;;;;;;;31.50;26.75;;;;;6.20;68.24;102408.50;5012441;28;46930;-67
2021/12/20 10:09:51;;;;;;;;;16.50;15.00;;;;;6.31;68.35;102427.59;4996188;28;45316;-67
2021/12/20 10:12:17;;;;;;;;;28.00;18.50;;;;;6.39;69.25;102441.25;4998488;28;45250;-68
2021/12/20 10:15:01;;;;;;;;;46.75;38.50;;;;;6.42;68.68;102426.63;4995818;28;46349;-68
2021/12/20 10:17:52;;;;;;;;;34.75;27.25;;;;;6.40;68.40;102416.81;4999081;28;46339;-67
2021/12/20 10:20:19;;;;;;;;;117.00;98.67;;;;;6.48;68.00;102424.41;5004808;28;45612;-68
2021/12/20 10:22:44;;;;;;;;;75.25;58.00;;;;;6.38;68.21;102405.28;4997718;28;44816;-68
2021/12/20 10:25:25;;;;;;;;;58.00;46.75;;;;;6.47;68.04;102422.59;4994619;28;45488;-67
2021/12/20 10:27:51;;;;;;;;;70.00;53.50;;;;;6.52;68.01;102419.34;4998051;28;45301;-67
2021/12/20 10:30:29;;;;;;;;;20.25;12.50;;;;;6.53;67.85;102416.84;4994296;28;45409;-67
2021/12/20 10:32:56;;;;;;;;;71.00;52.50;;;;;6.58;67.25;102422.38;4999789;28;45408;-67
2021/12/20 10:35:53;;;;;;;;;144.00;111.00;;;;;6.57;68.15;102412.69;4994733;28;45612;-67
2021/12/20 10:38:18;;;;;;;;;37.25;33.75;;;;;6.56;67.35;102424.91;4990640;28;46151;-67
2021/12/20 10:41:11;;;;;;;;;32.75;28.25;;;;;6.54;67.86;102416.00;4993174;28;45295;-67
2021/12/20 10:43:52;;;;;;;;;58.75;46.00;;;;;6.55;68.31;102412.56;5001115;28;45437;-68
2021/12/20 10:46:27;;;;;;;;;21.00;20.25;;;;;6.44;66.83;102398.75;4995859;28;45284;-67
2021/12/20 10:49:05;;;;;;;;;22.00;18.50;;;;;6.47;68.62;102403.28;4999298;28;46540;-68
2021/12/20 10:51:31;;;;;;;;;19.75;13.75;;;;;6.55;68.29;102409.94;4996237;28;45371;-68
2021/12/20 10:54:01;;;;;;;;;43.00;38.75;;;;;6.40;67.03;102396.69;4998694;28;45429;-68
2021/12/20 10:56:32;;;;;;;;;31.00;26.75;;;;;6.54;67.37;102409.84;4996788;28;45327;-68
2021/12/20 10:58:59;;;;;;;;;46.50;36.00;;;;;6.48;67.24;102397.22;4999424;28;45506;-68
2021/12/20 11:04:27;;;;;;;;;14.00;11.25;;;;;6.17;67.28;102353.16;4988672;28;45351;-68
2021/12/20 11:09:29;;;;;;;;;12.25;8.50;;;;;6.51;67.62;102405.31;4997207;28;45249;-69
2021/12/20 11:11:58;;;;;;;;;10.75;7.00;;;;;6.51;66.15;102407.94;4995878;28;45302;-68
2021/12/20 11:14:32;;;;;;;;;24.25;16.00;;;;;6.50;66.46;102391.25;4997566;28;45346;-68
2021/12/20 11:17:00;;;;;;;;;36.50;30.75;;;;;6.47;65.72;102393.69;4989445;28;45281;-69
2021/12/20 11:19:29;;;;;;;;;13.00;13.00;;;;;6.50;65.04;102380.75;4997482;28;45267;-68
2021/12/20 11:22:04;;;;;;;;;8.75;8.50;;;;;6.53;66.02;102387.94;4999741;28;45281;-68
2021/12/20 11:24:40;;;;;;;;;20.00;20.00;;;;;6.50;65.69;102382.47;4998746;28;45439;-68
2021/12/20 11:27:09;;;;;;;;;10.00;8.00;;;;;6.54;65.15;102387.13;5007653;28;47006;-68
2021/12/20 11:29:37;;;;;;;;;13.50;12.50;;;;;6.52;65.61;102379.94;4998737;28;46510;-68
2021/12/20 11:32:03;;;;;;;;;13.00;10.75;;;;;6.42;65.09;102358.31;5007927;28;45804;-67
2021/12/20 11:34:30;;;;;;;;;12.50;10.75;;;;;6.56;65.03;102366.22;5014119;28;45320;-68
2021/12/20 11:36:56;;;;;;;;;45.00;36.00;;;;;6.67;65.92;102375.72;5008928;28;45952;-68
2021/12/20 11:39:22;;;;;;;;;16.75;15.75;;;;;6.72;65.68;102372.56;4997141;28;45422;-68